sensor_id;sensor_type;location;lat;lon;timestamp;P1;durP1;ratioP1;P2;durP2;ratioP2
42944;SDS011;28584;42.636;23.294;2022-10-19T00:41:26;428.23;;;408.20;;
42944;SDS011;28584;42.636;23.294;2022-10-19T00:44:04;428.27;;;408.60;;
42944;SDS011;28584;42.636;23.294;2022-10-19T00:46:50;489.40;;;466.47;;
42944;SDS011;28584;42.636;23.294;2022-10-19T00:49:21;478.70;;;455.77;;
42944;SDS011;28584;42.636;23.294;2022-10-19T00:51:50;476.67;;;454.33;;
42944;SDS011;28584;42.636;23.294;2022-10-19T00:54:18;487.10;;;463.70;;
42944;SDS011;28584;42.636;23.294;2022-10-19T00:56:44;466.97;;;444.77;;
42944;SDS011;28584;42.636;23.294;2022-10-19T00:59:12;481.33;;;458.60;;
42944;SDS011;28584;42.636;23.294;2022-10-19T01:01:41;487.00;;;463.73;;
42944;SDS011;28584;42.636;23.294;2022-10-19T01:04:08;509.03;;;484.90;;
42944;SDS011;28584;42.636;23.294;2022-10-19T01:06:35;531.90;;;506.37;;
42944;SDS011;28584;42.636;23.294;2022-10-19T01:09:01;531.40;;;505.80;;
42944;SDS011;28584;42.636;23.294;2022-10-19T01:11:47;532.77;;;506.67;;
42944;SDS011;28584;42.636;23.294;2022-10-19T01:14:57;556.03;;;528.37;;
42944;SDS011;28584;42.636;23.294;2022-10-19T01:34:25;473.60;;;451.23;;
42944;SDS011;28584;42.636;23.294;2022-10-19T01:37:01;452.73;;;432.13;;
42944;SDS011;28584;42.636;23.294;2022-10-19T01:39:46;441.40;;;421.37;;
42944;SDS011;28584;42.636;23.294;2022-10-19T01:42:31;426.53;;;406.97;;
42944;SDS011;28584;42.636;23.294;2022-10-19T01:45:05;395.10;;;377.20;;
42944;SDS011;28584;42.636;23.294;2022-10-19T01:47:43;386.47;;;368.83;;
42944;SDS011;28584;42.636;23.294;2022-10-19T01:52:44;302.27;;;288.57;;
42944;SDS011;28584;42.636;23.294;2022-10-19T01:55:12;251.50;;;239.93;;
42944;SDS011;28584;42.636;23.294;2022-10-19T01:57:47;226.33;;;216.27;;
42944;SDS011;28584;42.636;23.294;2022-10-19T02:00:16;206.27;;;196.97;;
42944;SDS011;28584;42.636;23.294;2022-10-19T02:02:45;207.50;;;198.03;;
42944;SDS011;28584;42.636;23.294;2022-10-19T02:05:13;199.73;;;190.67;;
42944;SDS011;28584;42.636;23.294;2022-10-19T02:07:44;200.03;;;191.13;;
42944;SDS011;28584;42.636;23.294;2022-10-19T02:10:12;201.90;;;192.97;;
42944;SDS011;28584;42.636;23.294;2022-10-19T02:12:38;199.37;;;190.53;;
42944;SDS011;28584;42.636;23.294;2022-10-19T02:15:08;216.07;;;205.83;;
42944;SDS011;28584;42.636;23.294;2022-10-19T02:17:41;219.07;;;209.07;;
42944;SDS011;28584;42.636;23.294;2022-10-19T02:20:10;238.33;;;227.93;;
42944;SDS011;28584;42.636;23.294;2022-10-19T02:22:36;283.43;;;270.63;;
42944;SDS011;28584;42.636;23.294;2022-10-19T02:25:02;325.20;;;310.30;;
42944;SDS011;28584;42.636;23.294;2022-10-19T02:27:27;368.77;;;351.50;;
42944;SDS011;28584;42.636;23.294;2022-10-19T02:29:53;362.30;;;345.57;;
42944;SDS011;28584;42.636;23.294;2022-10-19T02:32:19;365.97;;;349.07;;
42944;SDS011;28584;42.636;23.294;2022-10-19T02:34:44;359.57;;;343.27;;
42944;SDS011;28584;42.636;23.294;2022-10-19T02:37:10;353.67;;;337.83;;
42944;SDS011;28584;42.636;23.294;2022-10-19T02:39:36;333.90;;;319.07;;
42944;SDS011;28584;42.636;23.294;2022-10-19T02:42:09;354.37;;;337.97;;
42944;SDS011;28584;42.636;23.294;2022-10-19T02:44:46;251.73;;;240.33;;
42944;SDS011;28584;42.636;23.294;2022-10-19T02:47:31;255.97;;;244.00;;
42944;SDS011;28584;42.636;23.294;2022-10-19T02:50:00;225.33;;;214.67;;
42944;SDS011;28584;42.636;23.294;2022-10-19T02:52:29;227.93;;;217.60;;
42944;SDS011;28584;42.636;23.294;2022-10-19T02:54:55;283.10;;;269.87;;
42944;SDS011;28584;42.636;23.294;2022-10-19T02:57:21;279.57;;;266.40;;
42944;SDS011;28584;42.636;23.294;2022-10-19T02:59:48;207.60;;;198.13;;
42944;SDS011;28584;42.636;23.294;2022-10-19T03:02:15;228.03;;;217.67;;
42944;SDS011;28584;42.636;23.294;2022-10-19T03:04:41;245.10;;;234.13;;
42944;SDS011;28584;42.636;23.294;2022-10-19T03:07:08;252.07;;;240.67;;
42944;SDS011;28584;42.636;23.294;2022-10-19T03:09:34;289.03;;;275.47;;
42944;SDS011;28584;42.636;23.294;2022-10-19T03:12:00;324.83;;;309.43;;
42944;SDS011;28584;42.636;23.294;2022-10-19T03:14:25;325.10;;;309.27;;
42944;SDS011;28584;42.636;23.294;2022-10-19T03:16:50;321.77;;;305.97;;
42944;SDS011;28584;42.636;23.294;2022-10-19T03:19:16;331.47;;;314.47;;
42944;SDS011;28584;42.636;23.294;2022-10-19T03:21:41;306.03;;;291.47;;
42944;SDS011;28584;42.636;23.294;2022-10-19T03:24:07;243.20;;;231.17;;
42944;SDS011;28584;42.636;23.294;2022-10-19T03:26:32;184.67;;;176.20;;
42944;SDS011;28584;42.636;23.294;2022-10-19T03:28:57;164.43;;;156.87;;
42944;SDS011;28584;42.636;23.294;2022-10-19T03:31:23;155.43;;;148.33;;
42944;SDS011;28584;42.636;23.294;2022-10-19T03:33:48;157.77;;;150.43;;
42944;SDS011;28584;42.636;23.294;2022-10-19T03:36:36;171.80;;;164.00;;
42944;SDS011;28584;42.636;23.294;2022-10-19T03:39:03;178.67;;;170.40;;
42944;SDS011;28584;42.636;23.294;2022-10-19T03:41:31;196.53;;;187.27;;
42944;SDS011;28584;42.636;23.294;2022-10-19T03:43:58;216.90;;;206.97;;
42944;SDS011;28584;42.636;23.294;2022-10-19T03:46:24;229.13;;;218.40;;
42944;SDS011;28584;42.636;23.294;2022-10-19T03:48:49;237.17;;;226.33;;
42944;SDS011;28584;42.636;23.294;2022-10-19T03:51:16;271.70;;;259.27;;
42944;SDS011;28584;42.636;23.294;2022-10-19T03:53:43;296.57;;;282.73;;
42944;SDS011;28584;42.636;23.294;2022-10-19T03:56:10;298.30;;;284.50;;
42944;SDS011;28584;42.636;23.294;2022-10-19T03:58:44;305.63;;;291.57;;
42944;SDS011;28584;42.636;23.294;2022-10-19T04:01:12;272.27;;;259.40;;
42944;SDS011;28584;42.636;23.294;2022-10-19T04:03:42;252.83;;;240.90;;
42944;SDS011;28584;42.636;23.294;2022-10-19T04:06:17;277.50;;;264.47;;
42944;SDS011;28584;42.636;23.294;2022-10-19T04:08:43;284.37;;;270.90;;
42944;SDS011;28584;42.636;23.294;2022-10-19T04:11:12;329.73;;;314.47;;
42944;SDS011;28584;42.636;23.294;2022-10-19T04:13:39;322.63;;;307.73;;
42944;SDS011;28584;42.636;23.294;2022-10-19T04:16:05;323.87;;;309.03;;
42944;SDS011;28584;42.636;23.294;2022-10-19T04:18:31;329.10;;;314.23;;
42944;SDS011;28584;42.636;23.294;2022-10-19T04:20:57;321.83;;;307.03;;
42944;SDS011;28584;42.636;23.294;2022-10-19T04:23:27;332.07;;;317.00;;
42944;SDS011;28584;42.636;23.294;2022-10-19T04:25:58;318.80;;;304.17;;
42944;SDS011;28584;42.636;23.294;2022-10-19T04:28:25;346.57;;;330.53;;
42944;SDS011;28584;42.636;23.294;2022-10-19T04:30:50;349.87;;;332.60;;
42944;SDS011;28584;42.636;23.294;2022-10-19T04:33:16;451.23;;;428.63;;
42944;SDS011;28584;42.636;23.294;2022-10-19T04:35:41;473.03;;;448.23;;
42944;SDS011;28584;42.636;23.294;2022-10-19T04:38:06;504.07;;;478.10;;
42944;SDS011;28584;42.636;23.294;2022-10-19T04:40:33;619.47;;;586.33;;
42944;SDS011;28584;42.636;23.294;2022-10-19T04:43:02;528.40;;;500.93;;
42944;SDS011;28584;42.636;23.294;2022-10-19T04:45:28;517.30;;;491.43;;
42944;SDS011;28584;42.636;23.294;2022-10-19T04:47:53;515.40;;;489.93;;
42944;SDS011;28584;42.636;23.294;2022-10-19T04:50:21;513.80;;;488.37;;
42944;SDS011;28584;42.636;23.294;2022-10-19T04:52:47;487.30;;;463.10;;
42944;SDS011;28584;42.636;23.294;2022-10-19T04:55:12;447.83;;;426.57;;
42944;SDS011;28584;42.636;23.294;2022-10-19T04:57:37;427.97;;;406.93;;
42944;SDS011;28584;42.636;23.294;2022-10-19T05:00:03;409.87;;;390.73;;
42944;SDS011;28584;42.636;23.294;2022-10-19T05:02:29;415.63;;;396.43;;
42944;SDS011;28584;42.636;23.294;2022-10-19T05:04:54;417.90;;;397.93;;
42944;SDS011;28584;42.636;23.294;2022-10-19T05:07:19;413.50;;;393.90;;
42944;SDS011;28584;42.636;23.294;2022-10-19T05:09:45;378.83;;;360.73;;
42944;SDS011;28584;42.636;23.294;2022-10-19T05:12:10;401.23;;;382.17;;
42944;SDS011;28584;42.636;23.294;2022-10-19T05:14:35;324.20;;;309.27;;
42944;SDS011;28584;42.636;23.294;2022-10-19T05:17:01;320.53;;;306.03;;
42944;SDS011;28584;42.636;23.294;2022-10-19T05:19:26;310.37;;;296.23;;
42944;SDS011;28584;42.636;23.294;2022-10-19T05:21:52;289.87;;;276.90;;
42944;SDS011;28584;42.636;23.294;2022-10-19T05:24:17;376.93;;;359.83;;
42944;SDS011;28584;42.636;23.294;2022-10-19T05:26:42;352.10;;;336.05;;
42944;SDS011;28584;42.636;23.294;2022-10-19T05:29:09;317.95;;;303.30;;
42944;SDS011;28584;42.636;23.294;2022-10-19T05:31:35;305.15;;;291.10;;
42944;SDS011;28584;42.636;23.294;2022-10-19T05:34:01;278.38;;;266.17;;
42944;SDS011;28584;42.636;23.294;2022-10-19T05:36:32;336.50;;;320.75;;
42944;SDS011;28584;42.636;23.294;2022-10-19T05:39:06;383.33;;;364.55;;
42944;SDS011;28584;42.636;23.294;2022-10-19T05:41:42;372.70;;;353.75;;
42944;SDS011;28584;42.636;23.294;2022-10-19T05:44:12;183.27;;;173.70;;
42944;SDS011;28584;42.636;23.294;2022-10-19T05:46:41;250.77;;;236.20;;
42944;SDS011;28584;42.636;23.294;2022-10-19T05:49:08;224.52;;;212.10;;
42944;SDS011;28584;42.636;23.294;2022-10-19T05:51:34;235.65;;;223.18;;
42944;SDS011;28584;42.636;23.294;2022-10-19T05:54:00;227.73;;;215.85;;
42944;SDS011;28584;42.636;23.294;2022-10-19T05:56:27;204.63;;;194.25;;
42944;SDS011;28584;42.636;23.294;2022-10-19T05:58:57;174.40;;;165.27;;
42944;SDS011;28584;42.636;23.294;2022-10-19T06:01:24;154.27;;;146.48;;
42944;SDS011;28584;42.636;23.294;2022-10-19T06:03:50;167.68;;;159.00;;
42944;SDS011;28584;42.636;23.294;2022-10-19T06:06:17;146.05;;;138.63;;
42944;SDS011;28584;42.636;23.294;2022-10-19T06:08:43;187.98;;;178.52;;
42944;SDS011;28584;42.636;23.294;2022-10-19T06:11:15;169.93;;;160.93;;
42944;SDS011;28584;42.636;23.294;2022-10-19T06:13:46;141.98;;;133.95;;
42944;SDS011;28584;42.636;23.294;2022-10-19T06:16:14;177.10;;;168.15;;
42944;SDS011;28584;42.636;23.294;2022-10-19T06:18:41;121.05;;;114.95;;
42944;SDS011;28584;42.636;23.294;2022-10-19T06:21:08;111.00;;;104.68;;
42944;SDS011;28584;42.636;23.294;2022-10-19T06:23:36;131.18;;;123.82;;
42944;SDS011;28584;42.636;23.294;2022-10-19T06:26:02;148.98;;;141.02;;
42944;SDS011;28584;42.636;23.294;2022-10-19T06:28:29;143.73;;;136.25;;
42944;SDS011;28584;42.636;23.294;2022-10-19T06:30:56;173.98;;;164.88;;
42944;SDS011;28584;42.636;23.294;2022-10-19T06:33:22;222.13;;;211.10;;
42944;SDS011;28584;42.636;23.294;2022-10-19T06:35:47;194.30;;;184.05;;
42944;SDS011;28584;42.636;23.294;2022-10-19T06:38:13;229.35;;;217.57;;
42944;SDS011;28584;42.636;23.294;2022-10-19T06:40:39;184.05;;;174.75;;
42944;SDS011;28584;42.636;23.294;2022-10-19T06:43:04;127.50;;;120.63;;
42944;SDS011;28584;42.636;23.294;2022-10-19T06:45:30;165.77;;;156.60;;
42944;SDS011;28584;42.636;23.294;2022-10-19T06:47:55;163.65;;;155.40;;
42944;SDS011;28584;42.636;23.294;2022-10-19T06:50:20;155.55;;;147.38;;
42944;SDS011;28584;42.636;23.294;2022-10-19T06:52:46;174.80;;;165.45;;
42944;SDS011;28584;42.636;23.294;2022-10-19T06:55:12;170.48;;;161.55;;
42944;SDS011;28584;42.636;23.294;2022-10-19T06:57:37;167.75;;;157.63;;
42944;SDS011;28584;42.636;23.294;2022-10-19T07:00:03;122.90;;;115.63;;
42944;SDS011;28584;42.636;23.294;2022-10-19T07:02:30;118.65;;;111.93;;
42944;SDS011;28584;42.636;23.294;2022-10-19T07:04:55;100.60;;;94.40;;
42944;SDS011;28584;42.636;23.294;2022-10-19T07:07:20;99.68;;;93.47;;
42944;SDS011;28584;42.636;23.294;2022-10-19T07:09:46;105.43;;;99.20;;
42944;SDS011;28584;42.636;23.294;2022-10-19T07:12:12;120.05;;;112.85;;
42944;SDS011;28584;42.636;23.294;2022-10-19T07:14:37;116.30;;;109.93;;
42944;SDS011;28584;42.636;23.294;2022-10-19T07:17:04;113.82;;;106.70;;
42944;SDS011;28584;42.636;23.294;2022-10-19T07:19:30;126.63;;;119.03;;
42944;SDS011;28584;42.636;23.294;2022-10-19T07:21:56;143.02;;;134.80;;
42944;SDS011;28584;42.636;23.294;2022-10-19T07:24:22;137.20;;;128.38;;
42944;SDS011;28584;42.636;23.294;2022-10-19T07:26:48;112.47;;;104.32;;
42944;SDS011;28584;42.636;23.294;2022-10-19T07:29:13;108.50;;;100.32;;
42944;SDS011;28584;42.636;23.294;2022-10-19T07:31:38;109.03;;;101.97;;
42944;SDS011;28584;42.636;23.294;2022-10-19T07:34:05;112.35;;;105.30;;
42944;SDS011;28584;42.636;23.294;2022-10-19T07:36:32;122.13;;;114.80;;
42944;SDS011;28584;42.636;23.294;2022-10-19T07:39:02;137.48;;;129.75;;
42944;SDS011;28584;42.636;23.294;2022-10-19T07:41:30;159.48;;;150.15;;
42944;SDS011;28584;42.636;23.294;2022-10-19T07:43:55;140.48;;;132.60;;
42944;SDS011;28584;42.636;23.294;2022-10-19T07:46:23;147.07;;;138.60;;
42944;SDS011;28584;42.636;23.294;2022-10-19T07:48:51;115.18;;;107.63;;
42944;SDS011;28584;42.636;23.294;2022-10-19T07:51:17;130.32;;;122.25;;
42944;SDS011;28584;42.636;23.294;2022-10-19T07:53:43;135.90;;;127.63;;
42944;SDS011;28584;42.636;23.294;2022-10-19T07:56:17;137.85;;;129.48;;
42944;SDS011;28584;42.636;23.294;2022-10-19T07:58:45;185.43;;;175.02;;
42944;SDS011;28584;42.636;23.294;2022-10-19T08:01:12;188.35;;;177.23;;
42944;SDS011;28584;42.636;23.294;2022-10-19T08:03:39;181.48;;;171.88;;
42944;SDS011;28584;42.636;23.294;2022-10-19T08:06:06;176.32;;;166.93;;
42944;SDS011;28584;42.636;23.294;2022-10-19T08:08:33;158.15;;;148.80;;
42944;SDS011;28584;42.636;23.294;2022-10-19T08:11:13;154.05;;;144.93;;
42944;SDS011;28584;42.636;23.294;2022-10-19T08:13:40;160.15;;;150.88;;
42944;SDS011;28584;42.636;23.294;2022-10-19T08:16:15;138.80;;;130.70;;
42944;SDS011;28584;42.636;23.294;2022-10-19T08:18:45;136.80;;;128.07;;
42944;SDS011;28584;42.636;23.294;2022-10-19T08:21:11;133.35;;;125.53;;
42944;SDS011;28584;42.636;23.294;2022-10-19T08:23:36;130.05;;;122.00;;
42944;SDS011;28584;42.636;23.294;2022-10-19T08:26:01;124.90;;;116.22;;
42944;SDS011;28584;42.636;23.294;2022-10-19T08:28:27;127.22;;;118.28;;
42944;SDS011;28584;42.636;23.294;2022-10-19T08:30:52;117.13;;;109.85;;
42944;SDS011;28584;42.636;23.294;2022-10-19T08:33:22;126.13;;;118.07;;
42944;SDS011;28584;42.636;23.294;2022-10-19T08:35:48;130.02;;;122.03;;
42944;SDS011;28584;42.636;23.294;2022-10-19T08:38:13;123.25;;;115.55;;
42944;SDS011;28584;42.636;23.294;2022-10-19T08:40:39;122.43;;;115.05;;
42944;SDS011;28584;42.636;23.294;2022-10-19T08:45:40;137.02;;;129.07;;
42944;SDS011;28584;42.636;23.294;2022-10-19T08:48:35;135.85;;;128.00;;
42944;SDS011;28584;42.636;23.294;2022-10-19T08:51:03;168.55;;;159.77;;
42944;SDS011;28584;42.636;23.294;2022-10-19T08:56:20;124.82;;;118.43;;
42944;SDS011;28584;42.636;23.294;2022-10-19T09:01:51;129.63;;;121.95;;
42944;SDS011;28584;42.636;23.294;2022-10-19T09:07:26;155.23;;;147.43;;
42944;SDS011;28584;42.636;23.294;2022-10-19T09:12:29;135.05;;;128.18;;
42944;SDS011;28584;42.636;23.294;2022-10-19T09:15:03;140.68;;;133.10;;
42944;SDS011;28584;42.636;23.294;2022-10-19T09:17:31;313.95;;;285.38;;
42944;SDS011;28584;42.636;23.294;2022-10-19T09:20:00;133.05;;;125.90;;
42944;SDS011;28584;42.636;23.294;2022-10-19T09:23:03;139.77;;;132.25;;
42944;SDS011;28584;42.636;23.294;2022-10-19T09:25:41;199.30;;;187.45;;
42944;SDS011;28584;42.636;23.294;2022-10-19T09:30:41;137.15;;;130.00;;
42944;SDS011;28584;42.636;23.294;2022-10-19T09:33:18;126.00;;;119.43;;
42944;SDS011;28584;42.636;23.294;2022-10-19T09:35:51;163.98;;;153.68;;
42944;SDS011;28584;42.636;23.294;2022-10-19T09:38:18;133.68;;;127.28;;
42944;SDS011;28584;42.636;23.294;2022-10-19T09:40:48;182.57;;;172.98;;
42944;SDS011;28584;42.636;23.294;2022-10-19T09:43:13;260.45;;;235.75;;
42944;SDS011;28584;42.636;23.294;2022-10-19T09:46:05;217.85;;;204.77;;
42944;SDS011;28584;42.636;23.294;2022-10-19T09:48:37;357.83;;;328.63;;
42944;SDS011;28584;42.636;23.294;2022-10-19T09:51:12;190.20;;;178.63;;
42944;SDS011;28584;42.636;23.294;2022-10-19T09:53:49;122.57;;;116.45;;
42944;SDS011;28584;42.636;23.294;2022-10-19T09:56:24;267.83;;;247.88;;
42944;SDS011;28584;42.636;23.294;2022-10-19T09:58:51;174.65;;;166.18;;
42944;SDS011;28584;42.636;23.294;2022-10-19T10:04:04;368.00;;;335.08;;
42944;SDS011;28584;42.636;23.294;2022-10-19T10:06:35;176.82;;;168.90;;
42944;SDS011;28584;42.636;23.294;2022-10-19T10:09:03;160.18;;;152.50;;
42944;SDS011;28584;42.636;23.294;2022-10-19T10:11:30;190.40;;;179.50;;
42944;SDS011;28584;42.636;23.294;2022-10-19T10:13:59;174.00;;;163.63;;
42944;SDS011;28584;42.636;23.294;2022-10-19T10:16:30;201.90;;;189.75;;
42944;SDS011;28584;42.636;23.294;2022-10-19T10:19:02;160.60;;;152.60;;
42944;SDS011;28584;42.636;23.294;2022-10-19T10:21:48;201.20;;;190.48;;
42944;SDS011;28584;42.636;23.294;2022-10-19T10:24:17;194.70;;;184.40;;
42944;SDS011;28584;42.636;23.294;2022-10-19T10:26:45;170.60;;;162.73;;
42944;SDS011;28584;42.636;23.294;2022-10-19T10:31:43;216.02;;;203.00;;
42944;SDS011;28584;42.636;23.294;2022-10-19T10:34:10;212.18;;;200.75;;
42944;SDS011;28584;42.636;23.294;2022-10-19T10:36:50;161.25;;;153.65;;
42944;SDS011;28584;42.636;23.294;2022-10-19T10:39:17;242.50;;;227.13;;
42944;SDS011;28584;42.636;23.294;2022-10-19T10:41:44;332.65;;;308.33;;
42944;SDS011;28584;42.636;23.294;2022-10-19T10:44:17;276.98;;;261.52;;
42944;SDS011;28584;42.636;23.294;2022-10-19T10:49:21;202.88;;;193.20;;
42944;SDS011;28584;42.636;23.294;2022-10-19T10:51:51;269.77;;;253.50;;
42944;SDS011;28584;42.636;23.294;2022-10-19T10:54:21;373.52;;;349.25;;
42944;SDS011;28584;42.636;23.294;2022-10-19T10:59:27;330.13;;;310.35;;
42944;SDS011;28584;42.636;23.294;2022-10-19T11:02:11;477.00;;;433.63;;
42944;SDS011;28584;42.636;23.294;2022-10-19T11:04:39;304.90;;;287.88;;
42944;SDS011;28584;42.636;23.294;2022-10-19T11:07:15;324.77;;;306.13;;
42944;SDS011;28584;42.636;23.294;2022-10-19T11:09:45;255.48;;;240.30;;
42944;SDS011;28584;42.636;23.294;2022-10-19T11:12:17;236.77;;;224.45;;
42944;SDS011;28584;42.636;23.294;2022-10-19T11:14:47;299.45;;;281.02;;
42944;SDS011;28584;42.636;23.294;2022-10-19T11:17:20;250.45;;;238.20;;
42944;SDS011;28584;42.636;23.294;2022-10-19T11:19:49;268.23;;;254.18;;
42944;SDS011;28584;42.636;23.294;2022-10-19T11:25:07;312.30;;;294.48;;
42944;SDS011;28584;42.636;23.294;2022-10-19T11:27:59;331.20;;;312.23;;
42944;SDS011;28584;42.636;23.294;2022-10-19T11:30:46;360.45;;;338.20;;
42944;SDS011;28584;42.636;23.294;2022-10-19T11:33:23;298.30;;;282.42;;
42944;SDS011;28584;42.636;23.294;2022-10-19T11:36:03;311.83;;;294.80;;
42944;SDS011;28584;42.636;23.294;2022-10-19T11:41:34;323.17;;;304.60;;
42944;SDS011;28584;42.636;23.294;2022-10-19T11:49:18;298.90;;;282.67;;
42944;SDS011;28584;42.636;23.294;2022-10-19T11:54:58;338.33;;;317.65;;
42944;SDS011;28584;42.636;23.294;2022-10-19T12:00:48;246.95;;;235.02;;
42944;SDS011;28584;42.636;23.294;2022-10-19T12:09:09;240.02;;;227.82;;
42944;SDS011;28584;42.636;23.294;2022-10-19T12:12:01;353.17;;;330.45;;
42944;SDS011;28584;42.636;23.294;2022-10-19T12:14:50;288.05;;;273.10;;
42944;SDS011;28584;42.636;23.294;2022-10-19T12:17:25;283.88;;;268.48;;
42944;SDS011;28584;42.636;23.294;2022-10-19T12:20:14;295.10;;;278.83;;
42944;SDS011;28584;42.636;23.294;2022-10-19T12:22:46;243.02;;;231.15;;
42944;SDS011;28584;42.636;23.294;2022-10-19T12:25:13;251.35;;;238.40;;
42944;SDS011;28584;42.636;23.294;2022-10-19T12:27:40;247.75;;;235.68;;
42944;SDS011;28584;42.636;23.294;2022-10-19T12:30:11;263.30;;;245.90;;
42944;SDS011;28584;42.636;23.294;2022-10-19T12:38:06;193.68;;;184.40;;
42944;SDS011;28584;42.636;23.294;2022-10-19T12:41:06;235.75;;;224.90;;
42944;SDS011;28584;42.636;23.294;2022-10-19T12:51:58;200.05;;;189.85;;
42944;SDS011;28584;42.636;23.294;2022-10-19T12:54:26;270.40;;;256.50;;
42944;SDS011;28584;42.636;23.294;2022-10-19T12:56:54;220.73;;;209.05;;
42944;SDS011;28584;42.636;23.294;2022-10-19T13:01:48;207.18;;;195.00;;
42944;SDS011;28584;42.636;23.294;2022-10-19T13:04:17;257.45;;;242.60;;
42944;SDS011;28584;42.636;23.294;2022-10-19T13:06:58;242.15;;;229.30;;
42944;SDS011;28584;42.636;23.294;2022-10-19T13:09:29;166.38;;;157.85;;
42944;SDS011;28584;42.636;23.294;2022-10-19T13:14:41;201.75;;;189.77;;
42944;SDS011;28584;42.636;23.294;2022-10-19T13:17:08;155.60;;;148.00;;
42944;SDS011;28584;42.636;23.294;2022-10-19T13:19:34;210.45;;;196.05;;
42944;SDS011;28584;42.636;23.294;2022-10-19T13:24:29;150.93;;;143.77;;
42944;SDS011;28584;42.636;23.294;2022-10-19T13:37:49;155.05;;;148.00;;
42944;SDS011;28584;42.636;23.294;2022-10-19T13:40:36;165.90;;;158.55;;
42944;SDS011;28584;42.636;23.294;2022-10-19T13:43:11;169.88;;;162.05;;
42944;SDS011;28584;42.636;23.294;2022-10-19T13:45:42;167.70;;;159.98;;
42944;SDS011;28584;42.636;23.294;2022-10-19T13:48:11;167.18;;;159.55;;
42944;SDS011;28584;42.636;23.294;2022-10-19T13:50:53;159.65;;;152.27;;
42944;SDS011;28584;42.636;23.294;2022-10-19T13:56:16;156.40;;;148.20;;
42944;SDS011;28584;42.636;23.294;2022-10-19T14:07:24;154.85;;;147.45;;
42944;SDS011;28584;42.636;23.294;2022-10-19T14:12:32;123.05;;;117.00;;
42944;SDS011;28584;42.636;23.294;2022-10-19T14:15:01;150.07;;;142.55;;
42944;SDS011;28584;42.636;23.294;2022-10-19T14:17:43;141.95;;;135.00;;
42944;SDS011;28584;42.636;23.294;2022-10-19T14:23:16;130.40;;;124.28;;
42944;SDS011;28584;42.636;23.294;2022-10-19T14:25:48;124.65;;;118.55;;
42944;SDS011;28584;42.636;23.294;2022-10-19T14:28:22;185.60;;;176.98;;
42944;SDS011;28584;42.636;23.294;2022-10-19T14:33:21;155.40;;;147.93;;
42944;SDS011;28584;42.636;23.294;2022-10-19T14:35:49;166.85;;;158.27;;
42944;SDS011;28584;42.636;23.294;2022-10-19T14:38:20;132.68;;;126.35;;
42944;SDS011;28584;42.636;23.294;2022-10-19T14:40:53;110.32;;;104.32;;
42944;SDS011;28584;42.636;23.294;2022-10-19T14:43:24;131.95;;;125.38;;
42944;SDS011;28584;42.636;23.294;2022-10-19T14:48:32;96.50;;;91.78;;
42944;SDS011;28584;42.636;23.294;2022-10-19T14:50:59;94.10;;;89.18;;
42944;SDS011;28584;42.636;23.294;2022-10-19T14:56:08;102.97;;;97.82;;
42944;SDS011;28584;42.636;23.294;2022-10-19T15:01:14;112.05;;;106.53;;
42944;SDS011;28584;42.636;23.294;2022-10-19T15:03:42;107.13;;;101.93;;
42944;SDS011;28584;42.636;23.294;2022-10-19T15:06:16;108.88;;;103.38;;
42944;SDS011;28584;42.636;23.294;2022-10-19T15:08:46;110.15;;;104.10;;
42944;SDS011;28584;42.636;23.294;2022-10-19T15:11:25;121.55;;;115.47;;
42944;SDS011;28584;42.636;23.294;2022-10-19T15:13:59;106.00;;;100.80;;
42944;SDS011;28584;42.636;23.294;2022-10-19T15:16:32;131.18;;;124.28;;
42944;SDS011;28584;42.636;23.294;2022-10-19T15:19:09;117.60;;;110.50;;
42944;SDS011;28584;42.636;23.294;2022-10-19T15:21:40;158.45;;;150.43;;
42944;SDS011;28584;42.636;23.294;2022-10-19T15:27:07;126.80;;;120.95;;
42944;SDS011;28584;42.636;23.294;2022-10-19T15:32:21;127.22;;;121.18;;
42944;SDS011;28584;42.636;23.294;2022-10-19T15:34:49;126.40;;;120.30;;
42944;SDS011;28584;42.636;23.294;2022-10-19T15:37:21;122.43;;;116.70;;
42944;SDS011;28584;42.636;23.294;2022-10-19T15:39:48;145.70;;;138.48;;
42944;SDS011;28584;42.636;23.294;2022-10-19T15:42:32;130.05;;;124.22;;
42944;SDS011;28584;42.636;23.294;2022-10-19T15:44:58;125.82;;;119.47;;
42944;SDS011;28584;42.636;23.294;2022-10-19T15:47:24;146.50;;;139.23;;
42944;SDS011;28584;42.636;23.294;2022-10-19T15:52:17;178.52;;;168.55;;
42944;SDS011;28584;42.636;23.294;2022-10-19T15:54:50;163.75;;;155.23;;
42944;SDS011;28584;42.636;23.294;2022-10-19T15:57:24;135.02;;;128.52;;
42944;SDS011;28584;42.636;23.294;2022-10-19T15:59:50;131.30;;;124.95;;
42944;SDS011;28584;42.636;23.294;2022-10-19T16:02:15;157.27;;;149.30;;
42944;SDS011;28584;42.636;23.294;2022-10-19T16:04:41;146.38;;;139.63;;
42944;SDS011;28584;42.636;23.294;2022-10-19T16:07:07;163.60;;;155.85;;
42944;SDS011;28584;42.636;23.294;2022-10-19T16:09:38;163.68;;;156.00;;
42944;SDS011;28584;42.636;23.294;2022-10-19T16:12:04;162.80;;;155.25;;
42944;SDS011;28584;42.636;23.294;2022-10-19T16:14:29;186.20;;;176.68;;
42944;SDS011;28584;42.636;23.294;2022-10-19T16:16:54;180.70;;;172.20;;
42944;SDS011;28584;42.636;23.294;2022-10-19T16:19:20;184.50;;;175.38;;
42944;SDS011;28584;42.636;23.294;2022-10-19T16:21:45;204.43;;;194.35;;
42944;SDS011;28584;42.636;23.294;2022-10-19T16:24:11;193.30;;;184.00;;
42944;SDS011;28584;42.636;23.294;2022-10-19T16:26:36;208.68;;;198.75;;
42944;SDS011;28584;42.636;23.294;2022-10-19T16:29:02;226.38;;;215.57;;
42944;SDS011;28584;42.636;23.294;2022-10-19T16:31:27;231.10;;;220.00;;
42944;SDS011;28584;42.636;23.294;2022-10-19T16:33:53;350.00;;;326.60;;
42944;SDS011;28584;42.636;23.294;2022-10-19T16:36:18;229.95;;;218.52;;
42944;SDS011;28584;42.636;23.294;2022-10-19T16:38:44;228.50;;;217.50;;
42944;SDS011;28584;42.636;23.294;2022-10-19T16:41:10;238.05;;;226.60;;
42944;SDS011;28584;42.636;23.294;2022-10-19T16:43:36;301.70;;;284.70;;
42944;SDS011;28584;42.636;23.294;2022-10-19T16:46:02;283.63;;;269.33;;
42944;SDS011;28584;42.636;23.294;2022-10-19T16:48:29;269.27;;;256.42;;
42944;SDS011;28584;42.636;23.294;2022-10-19T16:53:35;307.55;;;292.08;;
42944;SDS011;28584;42.636;23.294;2022-10-19T16:56:02;314.08;;;298.02;;
42944;SDS011;28584;42.636;23.294;2022-10-19T16:58:36;335.15;;;318.40;;